sensor_id;sensor_type;location;lat;lon;timestamp;P1;durP1;ratioP1;P2;durP2;ratioP2
48627;SDS011;34424;52.234;6.500;2023-04-06T00:01:08;10.75;;;8.85;;
48627;SDS011;34424;52.234;6.500;2023-04-06T00:06:11;16.48;;;9.55;;
48627;SDS011;34424;52.234;6.500;2023-04-06T00:11:18;11.68;;;9.27;;
48627;SDS011;34424;52.234;6.500;2023-04-06T00:16:21;15.77;;;10.05;;
48627;SDS011;34424;52.234;6.500;2023-04-06T00:21:26;14.27;;;9.27;;
48627;SDS011;34424;52.234;6.500;2023-04-06T00:31:32;14.85;;;9.25;;
48627;SDS011;34424;52.234;6.500;2023-04-06T00:36:35;14.30;;;9.47;;
48627;SDS011;34424;52.234;6.500;2023-04-06T00:46:48;16.00;;;9.63;;
48627;SDS011;34424;52.234;6.500;2023-04-06T00:51:50;14.67;;;9.17;;
48627;SDS011;34424;52.234;6.500;2023-04-06T00:56:54;13.60;;;9.50;;
48627;SDS011;34424;52.234;6.500;2023-04-06T01:01:57;15.20;;;10.27;;
48627;SDS011;34424;52.234;6.500;2023-04-06T01:07:00;14.27;;;8.80;;
48627;SDS011;34424;52.234;6.500;2023-04-06T01:12:05;14.35;;;9.57;;
48627;SDS011;34424;52.234;6.500;2023-04-06T01:17:07;15.65;;;10.38;;
48627;SDS011;34424;52.234;6.500;2023-04-06T01:22:14;14.30;;;10.52;;
48627;SDS011;34424;52.234;6.500;2023-04-06T01:27:17;15.55;;;10.75;;
48627;SDS011;34424;52.234;6.500;2023-04-06T01:32:20;17.05;;;11.55;;
48627;SDS011;34424;52.234;6.500;2023-04-06T01:37:24;15.33;;;10.37;;
48627;SDS011;34424;52.234;6.500;2023-04-06T01:42:27;16.88;;;10.80;;
48627;SDS011;34424;52.234;6.500;2023-04-06T01:47:31;15.95;;;10.15;;
48627;SDS011;34424;52.234;6.500;2023-04-06T01:52:35;16.55;;;10.43;;
48627;SDS011;34424;52.234;6.500;2023-04-06T01:57:39;13.30;;;9.52;;
48627;SDS011;34424;52.234;6.500;2023-04-06T02:02:42;18.17;;;10.77;;
48627;SDS011;34424;52.234;6.500;2023-04-06T02:07:46;19.92;;;11.88;;
48627;SDS011;34424;52.234;6.500;2023-04-06T02:12:48;19.80;;;11.45;;
48627;SDS011;34424;52.234;6.500;2023-04-06T02:17:51;17.13;;;10.83;;
48627;SDS011;34424;52.234;6.500;2023-04-06T02:22:56;14.70;;;10.30;;
48627;SDS011;34424;52.234;6.500;2023-04-06T02:27:58;17.92;;;11.68;;
48627;SDS011;34424;52.234;6.500;2023-04-06T02:33:01;17.70;;;10.80;;
48627;SDS011;34424;52.234;6.500;2023-04-06T02:38:06;19.77;;;12.00;;
48627;SDS011;34424;52.234;6.500;2023-04-06T02:43:09;17.27;;;11.60;;
48627;SDS011;34424;52.234;6.500;2023-04-06T02:48:11;16.45;;;10.52;;
48627;SDS011;34424;52.234;6.500;2023-04-06T02:53:15;21.13;;;12.45;;
48627;SDS011;34424;52.234;6.500;2023-04-06T02:58:18;15.52;;;11.15;;
48627;SDS011;34424;52.234;6.500;2023-04-06T03:03:20;20.73;;;11.20;;
48627;SDS011;34424;52.234;6.500;2023-04-06T03:08:25;16.83;;;11.02;;
48627;SDS011;34424;52.234;6.500;2023-04-06T03:13:28;18.42;;;11.25;;
48627;SDS011;34424;52.234;6.500;2023-04-06T03:18:31;16.20;;;11.70;;
48627;SDS011;34424;52.234;6.500;2023-04-06T03:23:35;17.67;;;10.83;;
48627;SDS011;34424;52.234;6.500;2023-04-06T03:28:38;21.20;;;12.40;;
48627;SDS011;34424;52.234;6.500;2023-04-06T03:33:40;17.55;;;12.20;;
48627;SDS011;34424;52.234;6.500;2023-04-06T03:38:44;21.42;;;11.48;;
48627;SDS011;34424;52.234;6.500;2023-04-06T03:43:47;18.70;;;11.93;;
48627;SDS011;34424;52.234;6.500;2023-04-06T03:48:51;14.77;;;10.13;;
48627;SDS011;34424;52.234;6.500;2023-04-06T03:53:55;19.80;;;12.60;;
48627;SDS011;34424;52.234;6.500;2023-04-06T03:58:57;15.70;;;10.15;;
48627;SDS011;34424;52.234;6.500;2023-04-06T04:04:00;16.23;;;10.27;;
48627;SDS011;34424;52.234;6.500;2023-04-06T04:09:04;17.38;;;11.32;;
48627;SDS011;34424;52.234;6.500;2023-04-06T04:14:07;15.55;;;11.15;;
48627;SDS011;34424;52.234;6.500;2023-04-06T04:19:09;16.90;;;10.80;;
48627;SDS011;34424;52.234;6.500;2023-04-06T04:24:13;18.75;;;11.52;;
48627;SDS011;34424;52.234;6.500;2023-04-06T04:29:16;17.42;;;11.10;;
48627;SDS011;34424;52.234;6.500;2023-04-06T04:34:22;16.42;;;11.02;;
48627;SDS011;34424;52.234;6.500;2023-04-06T04:39:27;18.65;;;12.30;;
48627;SDS011;34424;52.234;6.500;2023-04-06T04:44:30;15.40;;;11.65;;
48627;SDS011;34424;52.234;6.500;2023-04-06T04:49:33;18.27;;;11.38;;
48627;SDS011;34424;52.234;6.500;2023-04-06T04:54:37;18.95;;;13.05;;
48627;SDS011;34424;52.234;6.500;2023-04-06T04:59:42;19.83;;;11.80;;
48627;SDS011;34424;52.234;6.500;2023-04-06T05:04:45;20.00;;;11.50;;
48627;SDS011;34424;52.234;6.500;2023-04-06T05:09:49;18.00;;;11.48;;
48627;SDS011;34424;52.234;6.500;2023-04-06T05:14:51;18.02;;;11.68;;
48627;SDS011;34424;52.234;6.500;2023-04-06T05:19:55;18.90;;;11.20;;
48627;SDS011;34424;52.234;6.500;2023-04-06T05:24:59;16.70;;;11.48;;
48627;SDS011;34424;52.234;6.500;2023-04-06T05:30:01;17.75;;;11.70;;
48627;SDS011;34424;52.234;6.500;2023-04-06T05:35:04;16.73;;;11.50;;
48627;SDS011;34424;52.234;6.500;2023-04-06T05:40:09;16.05;;;10.60;;
48627;SDS011;34424;52.234;6.500;2023-04-06T05:45:12;16.95;;;11.77;;
48627;SDS011;34424;52.234;6.500;2023-04-06T05:50:18;20.90;;;12.73;;
48627;SDS011;34424;52.234;6.500;2023-04-06T05:55:22;19.23;;;12.33;;
48627;SDS011;34424;52.234;6.500;2023-04-06T06:00:24;19.85;;;12.43;;
48627;SDS011;34424;52.234;6.500;2023-04-06T06:05:28;15.73;;;12.30;;
48627;SDS011;34424;52.234;6.500;2023-04-06T06:10:32;19.10;;;13.18;;
48627;SDS011;34424;52.234;6.500;2023-04-06T06:15:35;24.50;;;13.88;;
48627;SDS011;34424;52.234;6.500;2023-04-06T06:20:37;17.77;;;13.18;;
48627;SDS011;34424;52.234;6.500;2023-04-06T06:25:42;18.33;;;13.10;;
48627;SDS011;34424;52.234;6.500;2023-04-06T06:30:45;19.00;;;13.52;;
48627;SDS011;34424;52.234;6.500;2023-04-06T06:40:52;16.02;;;12.02;;
48627;SDS011;34424;52.234;6.500;2023-04-06T06:45:55;17.90;;;13.98;;
48627;SDS011;34424;52.234;6.500;2023-04-06T06:50:57;17.70;;;14.10;;
48627;SDS011;34424;52.234;6.500;2023-04-06T06:56:02;16.90;;;14.17;;
48627;SDS011;34424;52.234;6.500;2023-04-06T07:01:04;17.45;;;13.23;;
48627;SDS011;34424;52.234;6.500;2023-04-06T07:06:07;14.60;;;13.10;;
48627;SDS011;34424;52.234;6.500;2023-04-06T07:11:11;16.37;;;13.73;;
48627;SDS011;34424;52.234;6.500;2023-04-06T07:16:14;17.35;;;12.70;;
48627;SDS011;34424;52.234;6.500;2023-04-06T07:21:18;16.70;;;12.52;;
48627;SDS011;34424;52.234;6.500;2023-04-06T07:26:22;15.55;;;12.25;;
48627;SDS011;34424;52.234;6.500;2023-04-06T07:31:25;15.40;;;11.85;;
48627;SDS011;34424;52.234;6.500;2023-04-06T07:36:28;17.80;;;12.38;;
48627;SDS011;34424;52.234;6.500;2023-04-06T07:41:32;17.63;;;11.53;;
48627;SDS011;34424;52.234;6.500;2023-04-06T07:46:34;23.23;;;12.52;;
48627;SDS011;34424;52.234;6.500;2023-04-06T07:51:38;17.52;;;11.68;;
48627;SDS011;34424;52.234;6.500;2023-04-06T08:01:45;17.77;;;10.90;;
48627;SDS011;34424;52.234;6.500;2023-04-06T08:06:47;15.82;;;10.73;;
48627;SDS011;34424;52.234;6.500;2023-04-06T08:11:51;15.98;;;11.82;;
48627;SDS011;34424;52.234;6.500;2023-04-06T08:16:54;15.25;;;10.95;;
48627;SDS011;34424;52.234;6.500;2023-04-06T08:21:57;17.00;;;11.35;;
48627;SDS011;34424;52.234;6.500;2023-04-06T08:27:01;15.63;;;11.38;;
48627;SDS011;34424;52.234;6.500;2023-04-06T08:32:04;16.95;;;12.38;;
48627;SDS011;34424;52.234;6.500;2023-04-06T08:42:12;17.98;;;11.75;;
48627;SDS011;34424;52.234;6.500;2023-04-06T08:47:21;15.55;;;12.43;;
48627;SDS011;34424;52.234;6.500;2023-04-06T08:52:25;16.00;;;11.77;;
48627;SDS011;34424;52.234;6.500;2023-04-06T08:57:31;16.13;;;12.57;;
48627;SDS011;34424;52.234;6.500;2023-04-06T09:02:36;22.50;;;13.30;;
48627;SDS011;34424;52.234;6.500;2023-04-06T09:07:42;17.90;;;12.25;;
48627;SDS011;34424;52.234;6.500;2023-04-06T09:12:46;20.13;;;12.33;;
48627;SDS011;34424;52.234;6.500;2023-04-06T09:17:48;19.85;;;12.70;;
48627;SDS011;34424;52.234;6.500;2023-04-06T09:22:53;19.85;;;13.00;;
48627;SDS011;34424;52.234;6.500;2023-04-06T09:33:03;25.33;;;13.82;;
48627;SDS011;34424;52.234;6.500;2023-04-06T09:38:10;22.70;;;12.98;;
48627;SDS011;34424;52.234;6.500;2023-04-06T09:43:24;22.60;;;14.55;;
48627;SDS011;34424;52.234;6.500;2023-04-06T09:48:27;20.55;;;14.52;;
48627;SDS011;34424;52.234;6.500;2023-04-06T09:53:33;21.23;;;13.98;;
48627;SDS011;34424;52.234;6.500;2023-04-06T09:58:41;19.98;;;14.23;;
48627;SDS011;34424;52.234;6.500;2023-04-06T10:03:51;22.45;;;14.27;;
48627;SDS011;34424;52.234;6.500;2023-04-06T10:08:58;21.27;;;14.57;;
48627;SDS011;34424;52.234;6.500;2023-04-06T10:14:06;22.33;;;14.38;;
48627;SDS011;34424;52.234;6.500;2023-04-06T10:19:12;20.90;;;15.20;;
48627;SDS011;34424;52.234;6.500;2023-04-06T10:24:17;21.08;;;15.50;;
48627;SDS011;34424;52.234;6.500;2023-04-06T10:29:21;21.98;;;14.70;;
48627;SDS011;34424;52.234;6.500;2023-04-06T10:34:23;21.65;;;14.38;;
48627;SDS011;34424;52.234;6.500;2023-04-06T10:39:45;18.50;;;14.23;;
48627;SDS011;34424;52.234;6.500;2023-04-06T10:44:49;21.85;;;13.68;;
48627;SDS011;34424;52.234;6.500;2023-04-06T10:49:52;19.33;;;12.88;;
48627;SDS011;34424;52.234;6.500;2023-04-06T10:54:55;18.23;;;12.95;;
48627;SDS011;34424;52.234;6.500;2023-04-06T10:59:59;21.00;;;12.45;;
48627;SDS011;34424;52.234;6.500;2023-04-06T11:05:02;17.58;;;12.30;;
48627;SDS011;34424;52.234;6.500;2023-04-06T11:10:05;16.20;;;11.80;;
48627;SDS011;34424;52.234;6.500;2023-04-06T11:15:18;19.17;;;12.35;;
48627;SDS011;34424;52.234;6.500;2023-04-06T11:20:21;18.85;;;13.05;;
48627;SDS011;34424;52.234;6.500;2023-04-06T11:25:23;19.00;;;12.60;;
48627;SDS011;34424;52.234;6.500;2023-04-06T11:30:28;21.15;;;13.02;;
48627;SDS011;34424;52.234;6.500;2023-04-06T11:35:31;20.00;;;13.20;;
48627;SDS011;34424;52.234;6.500;2023-04-06T11:40:35;20.95;;;13.70;;
48627;SDS011;34424;52.234;6.500;2023-04-06T11:45:42;19.77;;;13.73;;
48627;SDS011;34424;52.234;6.500;2023-04-06T11:50:46;20.92;;;14.32;;
48627;SDS011;34424;52.234;6.500;2023-04-06T11:55:50;20.50;;;14.35;;
48627;SDS011;34424;52.234;6.500;2023-04-06T12:00:54;20.92;;;13.27;;
48627;SDS011;34424;52.234;6.500;2023-04-06T12:06:05;20.85;;;13.43;;
48627;SDS011;34424;52.234;6.500;2023-04-06T12:11:08;19.75;;;13.25;;
48627;SDS011;34424;52.234;6.500;2023-04-06T12:16:12;17.38;;;13.27;;
48627;SDS011;34424;52.234;6.500;2023-04-06T12:21:16;20.92;;;11.95;;
48627;SDS011;34424;52.234;6.500;2023-04-06T12:26:19;12.88;;;9.15;;
48627;SDS011;34424;52.234;6.500;2023-04-06T12:31:23;15.50;;;10.80;;
48627;SDS011;34424;52.234;6.500;2023-04-06T12:36:26;15.48;;;10.55;;
48627;SDS011;34424;52.234;6.500;2023-04-06T12:41:30;13.57;;;9.65;;
48627;SDS011;34424;52.234;6.500;2023-04-06T12:46:34;15.10;;;9.67;;
48627;SDS011;34424;52.234;6.500;2023-04-06T12:51:37;12.27;;;8.93;;
48627;SDS011;34424;52.234;6.500;2023-04-06T12:56:40;15.80;;;10.00;;
48627;SDS011;34424;52.234;6.500;2023-04-06T13:01:44;15.77;;;9.17;;
48627;SDS011;34424;52.234;6.500;2023-04-06T13:06:46;13.13;;;9.27;;
48627;SDS011;34424;52.234;6.500;2023-04-06T13:11:50;14.83;;;10.10;;
48627;SDS011;34424;52.234;6.500;2023-04-06T13:16:54;15.18;;;9.90;;
48627;SDS011;34424;52.234;6.500;2023-04-06T13:21:57;13.90;;;9.07;;
48627;SDS011;34424;52.234;6.500;2023-04-06T13:27:00;14.02;;;10.25;;
48627;SDS011;34424;52.234;6.500;2023-04-06T13:32:05;16.55;;;10.27;;
48627;SDS011;34424;52.234;6.500;2023-04-06T13:37:08;16.00;;;11.82;;
48627;SDS011;34424;52.234;6.500;2023-04-06T13:42:11;12.53;;;10.50;;
48627;SDS011;34424;52.234;6.500;2023-04-06T13:47:15;18.73;;;12.30;;
48627;SDS011;34424;52.234;6.500;2023-04-06T13:52:18;17.27;;;11.43;;
48627;SDS011;34424;52.234;6.500;2023-04-06T13:57:21;16.40;;;11.25;;
48627;SDS011;34424;52.234;6.500;2023-04-06T14:02:25;36.07;;;12.57;;
48627;SDS011;34424;52.234;6.500;2023-04-06T14:07:28;14.52;;;11.05;;
48627;SDS011;34424;52.234;6.500;2023-04-06T14:12:31;20.63;;;12.97;;
48627;SDS011;34424;52.234;6.500;2023-04-06T14:17:35;17.47;;;12.13;;
48627;SDS011;34424;52.234;6.500;2023-04-06T14:22:38;21.17;;;11.85;;
48627;SDS011;34424;52.234;6.500;2023-04-06T14:27:42;17.13;;;11.80;;
48627;SDS011;34424;52.234;6.500;2023-04-06T14:32:46;15.70;;;11.57;;
48627;SDS011;34424;52.234;6.500;2023-04-06T14:37:49;16.90;;;11.25;;
48627;SDS011;34424;52.234;6.500;2023-04-06T14:42:52;16.77;;;10.93;;
48627;SDS011;34424;52.234;6.500;2023-04-06T14:47:57;15.43;;;10.85;;
48627;SDS011;34424;52.234;6.500;2023-04-06T14:52:59;11.88;;;9.48;;
48627;SDS011;34424;52.234;6.500;2023-04-06T14:58:02;13.70;;;10.37;;
48627;SDS011;34424;52.234;6.500;2023-04-06T15:03:06;15.13;;;9.40;;
48627;SDS011;34424;52.234;6.500;2023-04-06T15:08:10;12.43;;;9.40;;
48627;SDS011;34424;52.234;6.500;2023-04-06T15:13:16;12.75;;;10.10;;
48627;SDS011;34424;52.234;6.500;2023-04-06T15:18:20;14.75;;;10.15;;
48627;SDS011;34424;52.234;6.500;2023-04-06T15:23:23;10.48;;;8.15;;
48627;SDS011;34424;52.234;6.500;2023-04-06T15:28:26;11.90;;;9.17;;
48627;SDS011;34424;52.234;6.500;2023-04-06T15:33:30;10.65;;;8.10;;
48627;SDS011;34424;52.234;6.500;2023-04-06T15:38:33;13.10;;;8.48;;
48627;SDS011;34424;52.234;6.500;2023-04-06T15:43:36;15.43;;;10.23;;
48627;SDS011;34424;52.234;6.500;2023-04-06T15:48:42;13.88;;;9.50;;
48627;SDS011;34424;52.234;6.500;2023-04-06T15:53:45;11.88;;;9.63;;
48627;SDS011;34424;52.234;6.500;2023-04-06T15:58:47;12.18;;;9.77;;
48627;SDS011;34424;52.234;6.500;2023-04-06T16:03:51;13.82;;;10.55;;
48627;SDS011;34424;52.234;6.500;2023-04-06T16:08:54;14.18;;;10.85;;
48627;SDS011;34424;52.234;6.500;2023-04-06T16:13:57;16.20;;;10.90;;
48627;SDS011;34424;52.234;6.500;2023-04-06T16:19:01;16.95;;;10.70;;
48627;SDS011;34424;52.234;6.500;2023-04-06T16:24:04;17.35;;;11.27;;
48627;SDS011;34424;52.234;6.500;2023-04-06T16:29:08;17.55;;;12.07;;
48627;SDS011;34424;52.234;6.500;2023-04-06T16:34:12;16.77;;;11.23;;
48627;SDS011;34424;52.234;6.500;2023-04-06T16:39:15;16.02;;;12.10;;
48627;SDS011;34424;52.234;6.500;2023-04-06T16:44:18;17.35;;;12.20;;
48627;SDS011;34424;52.234;6.500;2023-04-06T16:49:22;22.75;;;13.43;;
48627;SDS011;34424;52.234;6.500;2023-04-06T16:54:25;21.55;;;14.60;;
48627;SDS011;34424;52.234;6.500;2023-04-06T16:59:27;20.60;;;14.32;;
48627;SDS011;34424;52.234;6.500;2023-04-06T17:04:31;23.20;;;15.07;;
48627;SDS011;34424;52.234;6.500;2023-04-06T17:09:34;19.38;;;13.98;;
48627;SDS011;34424;52.234;6.500;2023-04-06T17:14:37;21.13;;;15.02;;
48627;SDS011;34424;52.234;6.500;2023-04-06T17:19:41;29.02;;;16.15;;
48627;SDS011;34424;52.234;6.500;2023-04-06T17:24:43;20.50;;;15.32;;
48627;SDS011;34424;52.234;6.500;2023-04-06T17:29:46;22.87;;;15.23;;
48627;SDS011;34424;52.234;6.500;2023-04-06T17:34:50;23.00;;;14.93;;
48627;SDS011;34424;52.234;6.500;2023-04-06T17:39:52;22.95;;;15.52;;
48627;SDS011;34424;52.234;6.500;2023-04-06T17:44:56;23.27;;;15.80;;
48627;SDS011;34424;52.234;6.500;2023-04-06T17:50:00;19.10;;;15.10;;
48627;SDS011;34424;52.234;6.500;2023-04-06T17:55:03;21.13;;;14.65;;
48627;SDS011;34424;52.234;6.500;2023-04-06T18:00:07;22.03;;;15.23;;
48627;SDS011;34424;52.234;6.500;2023-04-06T18:05:12;20.60;;;15.45;;
48627;SDS011;34424;52.234;6.500;2023-04-06T18:10:14;20.83;;;16.33;;
48627;SDS011;34424;52.234;6.500;2023-04-06T18:15:18;24.48;;;16.55;;
48627;SDS011;34424;52.234;6.500;2023-04-06T18:20:21;25.10;;;17.90;;
48627;SDS011;34424;52.234;6.500;2023-04-06T18:25:24;22.27;;;17.33;;
48627;SDS011;34424;52.234;6.500;2023-04-06T18:30:28;28.92;;;20.17;;
48627;SDS011;34424;52.234;6.500;2023-04-06T18:40:35;29.02;;;21.20;;
48627;SDS011;34424;52.234;6.500;2023-04-06T18:45:38;30.45;;;22.35;;
48627;SDS011;34424;52.234;6.500;2023-04-06T18:50:51;37.15;;;24.08;;
48627;SDS011;34424;52.234;6.500;2023-04-06T18:55:54;32.28;;;22.85;;
48627;SDS011;34424;52.234;6.500;2023-04-06T19:00:57;31.55;;;23.15;;
48627;SDS011;34424;52.234;6.500;2023-04-06T19:06:02;30.60;;;22.13;;
48627;SDS011;34424;52.234;6.500;2023-04-06T19:11:06;30.75;;;22.17;;
48627;SDS011;34424;52.234;6.500;2023-04-06T19:16:09;31.70;;;21.83;;
48627;SDS011;34424;52.234;6.500;2023-04-06T19:21:16;35.90;;;23.15;;
48627;SDS011;34424;52.234;6.500;2023-04-06T19:26:20;41.13;;;25.17;;
48627;SDS011;34424;52.234;6.500;2023-04-06T19:31:24;33.95;;;24.02;;
48627;SDS011;34424;52.234;6.500;2023-04-06T19:36:30;31.08;;;24.17;;
48627;SDS011;34424;52.234;6.500;2023-04-06T19:41:33;34.35;;;22.95;;
48627;SDS011;34424;52.234;6.500;2023-04-06T19:46:36;31.98;;;22.27;;
48627;SDS011;34424;52.234;6.500;2023-04-06T19:51:40;33.17;;;24.73;;
48627;SDS011;34424;52.234;6.500;2023-04-06T19:56:42;35.20;;;25.60;;
48627;SDS011;34424;52.234;6.500;2023-04-06T20:01:45;36.97;;;25.77;;
48627;SDS011;34424;52.234;6.500;2023-04-06T20:06:49;35.47;;;25.90;;
48627;SDS011;34424;52.234;6.500;2023-04-06T20:11:53;36.25;;;27.58;;
48627;SDS011;34424;52.234;6.500;2023-04-06T20:16:57;36.53;;;28.23;;
48627;SDS011;34424;52.234;6.500;2023-04-06T20:22:01;35.78;;;26.70;;
48627;SDS011;34424;52.234;6.500;2023-04-06T20:27:05;39.80;;;29.45;;
48627;SDS011;34424;52.234;6.500;2023-04-06T20:32:08;37.08;;;29.05;;
48627;SDS011;34424;52.234;6.500;2023-04-06T20:42:15;38.60;;;30.05;;
48627;SDS011;34424;52.234;6.500;2023-04-06T20:47:17;44.70;;;30.97;;
48627;SDS011;34424;52.234;6.500;2023-04-06T20:52:21;40.30;;;31.88;;
48627;SDS011;34424;52.234;6.500;2023-04-06T20:57:24;40.55;;;30.85;;
48627;SDS011;34424;52.234;6.500;2023-04-06T21:02:27;41.38;;;30.92;;
48627;SDS011;34424;52.234;6.500;2023-04-06T21:07:31;40.53;;;30.77;;
48627;SDS011;34424;52.234;6.500;2023-04-06T21:12:33;42.50;;;31.75;;
48627;SDS011;34424;52.234;6.500;2023-04-06T21:17:36;41.05;;;29.67;;
48627;SDS011;34424;52.234;6.500;2023-04-06T21:22:40;41.60;;;28.67;;
48627;SDS011;34424;52.234;6.500;2023-04-06T21:27:42;39.75;;;30.48;;
48627;SDS011;34424;52.234;6.500;2023-04-06T21:32:45;40.65;;;29.88;;
48627;SDS011;34424;52.234;6.500;2023-04-06T21:37:49;38.27;;;27.97;;
48627;SDS011;34424;52.234;6.500;2023-04-06T21:42:52;38.30;;;30.10;;
48627;SDS011;34424;52.234;6.500;2023-04-06T21:47:54;37.17;;;27.55;;
48627;SDS011;34424;52.234;6.500;2023-04-06T21:52:58;38.03;;;28.33;;
48627;SDS011;34424;52.234;6.500;2023-04-06T21:58:01;36.53;;;27.33;;
48627;SDS011;34424;52.234;6.500;2023-04-06T22:03:03;37.67;;;28.15;;
48627;SDS011;34424;52.234;6.500;2023-04-06T22:08:08;38.65;;;27.63;;
48627;SDS011;34424;52.234;6.500;2023-04-06T22:13:18;41.28;;;28.45;;
48627;SDS011;34424;52.234;6.500;2023-04-06T22:18:20;39.50;;;27.45;;
48627;SDS011;34424;52.234;6.500;2023-04-06T22:23:24;36.90;;;27.90;;
48627;SDS011;34424;52.234;6.500;2023-04-06T22:28:27;37.67;;;28.45;;
48627;SDS011;34424;52.234;6.500;2023-04-06T22:33:30;41.20;;;28.65;;
48627;SDS011;34424;52.234;6.500;2023-04-06T22:38:34;43.35;;;30.42;;
48627;SDS011;34424;52.234;6.500;2023-04-06T22:43:36;44.03;;;31.80;;
48627;SDS011;34424;52.234;6.500;2023-04-06T22:48:39;41.88;;;30.48;;
48627;SDS011;34424;52.234;6.500;2023-04-06T22:53:43;44.22;;;31.17;;
48627;SDS011;34424;52.234;6.500;2023-04-06T22:58:46;44.38;;;32.42;;
48627;SDS011;34424;52.234;6.500;2023-04-06T23:03:48;46.53;;;32.53;;
48627;SDS011;34424;52.234;6.500;2023-04-06T23:08:52;46.90;;;32.50;;
48627;SDS011;34424;52.234;6.500;2023-04-06T23:13:55;45.08;;;30.40;;
48627;SDS011;34424;52.234;6.500;2023-04-06T23:18:58;47.13;;;31.27;;
48627;SDS011;34424;52.234;6.500;2023-04-06T23:24:02;46.63;;;30.50;;
48627;SDS011;34424;52.234;6.500;2023-04-06T23:29:05;46.15;;;32.58;;
48627;SDS011;34424;52.234;6.500;2023-04-06T23:34:07;50.00;;;33.45;;
48627;SDS011;34424;52.234;6.500;2023-04-06T23:39:11;48.88;;;32.25;;
48627;SDS011;34424;52.234;6.500;2023-04-06T23:44:14;49.63;;;33.45;;
48627;SDS011;34424;52.234;6.500;2023-04-06T23:49:16;52.72;;;34.35;;
48627;SDS011;34424;52.234;6.500;2023-04-06T23:54:20;50.90;;;34.13;;
48627;SDS011;34424;52.234;6.500;2023-04-06T23:59:23;55.30;;;36.03;;
